createdAt,value
2018-03-22T00:00:13.434Z,20.65
2018-03-22T00:02:41.713Z,20.03
2018-03-22T00:05:10.769Z,18.97
2018-03-22T00:07:39.013Z,21.27
2018-03-22T00:10:08.760Z,21.47
2018-03-22T00:12:38.118Z,20.12
2018-03-22T00:15:07.121Z,21.62
2018-03-22T00:17:36.133Z,20.62
2018-03-22T00:20:04.416Z,20.10
2018-03-22T00:22:38.342Z,22.27
2018-03-22T00:25:08.109Z,22.30
2018-03-22T00:27:36.745Z,22.42
2018-03-22T00:30:05.761Z,22.65
2018-03-22T00:32:34.057Z,21.70
2018-03-22T00:35:02.292Z,21.52
2018-03-22T00:37:30.537Z,21.40
2018-03-22T00:39:59.200Z,22.50
2018-03-22T00:42:28.202Z,21.77
2018-03-22T00:44:56.435Z,21.60
2018-03-22T00:47:24.704Z,21.37
2018-03-22T00:49:52.940Z,20.33
2018-03-22T00:52:21.171Z,21.17
2018-03-22T00:54:50.952Z,21.25
2018-03-22T00:57:19.190Z,23.20
2018-03-22T00:59:47.424Z,22.10
2018-03-22T01:02:16.092Z,24.50
2018-03-22T01:04:45.837Z,23.02
2018-03-22T01:07:14.072Z,22.20
2018-03-22T01:09:42.365Z,20.92
2018-03-22T01:12:11.369Z,22.50
2018-03-22T01:14:40.376Z,21.42
2018-03-22T01:17:08.985Z,20.60
2018-03-22T01:19:38.728Z,20.95
2018-03-22T01:22:06.960Z,20.60
2018-03-22T01:24:35.564Z,21.93
2018-03-22T01:27:04.188Z,20.55
2018-03-22T01:29:32.429Z,20.07
2018-03-22T01:32:00.696Z,20.37
2018-03-22T01:34:29.327Z,19.73
2018-03-22T01:36:57.564Z,18.67
2018-03-22T01:39:25.862Z,18.90
2018-03-22T01:41:55.236Z,20.70
2018-03-22T01:44:23.469Z,19.50
2018-03-22T01:46:51.735Z,20.10
2018-03-22T01:49:19.975Z,21.30
2018-03-22T01:51:48.231Z,19.12
2018-03-22T01:54:17.840Z,19.45
2018-03-22T01:56:45.951Z,18.43
2018-03-22T01:59:14.189Z,19.27
2018-03-22T02:01:43.973Z,17.90
2018-03-22T02:04:13.565Z,18.13
2018-03-22T02:06:42.817Z,17.67
2018-03-22T02:09:11.088Z,18.27
2018-03-22T02:11:40.107Z,16.77
2018-03-22T02:14:08.320Z,16.30
2018-03-22T02:16:36.592Z,19.63
2018-03-22T02:19:04.820Z,18.83
2018-03-22T02:21:33.056Z,18.10
2018-03-22T02:24:02.857Z,17.97
2018-03-22T02:26:31.089Z,20.40
2018-03-22T02:28:59.716Z,16.67
2018-03-22T02:31:28.008Z,17.42
2018-03-22T02:33:57.388Z,19.87
2018-03-22T02:36:25.620Z,18.50
2018-03-22T02:38:53.892Z,16.40
2018-03-22T02:41:22.130Z,18.40
2018-03-22T02:43:50.361Z,18.77
2018-03-22T02:46:18.636Z,19.03
2018-03-22T02:48:46.868Z,18.43
2018-03-22T02:51:15.102Z,19.27
2018-03-22T02:53:44.138Z,19.40
2018-03-22T02:56:12.368Z,18.10
2018-03-22T02:58:40.600Z,17.80
2018-03-22T03:01:08.872Z,19.40
2018-03-22T03:03:37.108Z,17.20
2018-03-22T03:06:06.845Z,18.80
2018-03-22T03:08:35.112Z,17.40
2018-03-22T03:11:03.341Z,17.27
2018-03-22T03:13:31.576Z,17.27
2018-03-22T03:15:59.852Z,17.80
2018-03-22T03:18:28.080Z,17.40
2018-03-22T03:20:56.316Z,19.67
2018-03-22T03:23:25.356Z,18.50
2018-03-22T03:25:54.352Z,19.63
2018-03-22T03:28:22.580Z,18.20
2018-03-22T03:30:50.864Z,18.05
2018-03-22T03:33:19.857Z,16.80
2018-03-22T03:35:48.879Z,18.47
2018-03-22T03:38:17.153Z,18.63
2018-03-22T03:40:46.158Z,19.20
2018-03-22T03:43:15.152Z,18.33
2018-03-22T03:45:44.564Z,20.70
2018-03-22T03:48:12.796Z,18.90
2018-03-22T03:50:41.028Z,19.63
2018-03-22T03:53:09.293Z,19.97
2018-03-22T03:55:37.522Z,19.83
2018-03-22T03:58:05.786Z,20.30
2018-03-22T04:00:34.016Z,18.87
2018-03-22T04:03:02.292Z,20.33
2018-03-22T04:05:31.670Z,20.10
2018-03-22T04:07:59.904Z,20.90
2018-03-22T04:10:29.688Z,18.60
2018-03-22T04:12:58.313Z,20.00
2018-03-22T04:15:27.685Z,21.17
2018-03-22T04:17:55.966Z,19.17
2018-03-22T04:20:24.968Z,21.70
2018-03-22T04:22:53.204Z,22.67
2018-03-22T04:25:22.229Z,21.37
2018-03-22T04:27:51.225Z,21.57
2018-03-22T04:30:20.623Z,22.43
2018-03-22T04:32:48.901Z,22.13
2018-03-22T04:35:17.140Z,23.10
2018-03-22T04:37:45.401Z,23.40
2018-03-22T04:40:13.689Z,24.23
2018-03-22T04:42:41.924Z,22.50
2018-03-22T04:45:10.168Z,23.90
2018-03-22T04:47:38.428Z,22.17
2018-03-22T04:50:08.174Z,23.07
2018-03-22T04:52:36.409Z,24.57
2018-03-22T04:55:04.682Z,24.93
2018-03-22T04:57:32.921Z,24.55
2018-03-22T05:00:01.923Z,23.30
2018-03-22T05:02:30.200Z,22.73
2018-03-22T05:04:58.439Z,23.10
2018-03-22T05:07:28.212Z,23.38
2018-03-22T05:09:56.480Z,25.30
2018-03-22T05:12:24.717Z,23.83
2018-03-22T05:14:52.957Z,25.30
2018-03-22T05:17:21.232Z,23.62
2018-03-22T05:19:49.473Z,24.35
2018-03-22T05:22:19.059Z,24.30
2018-03-22T05:24:47.212Z,24.30
2018-03-22T05:27:16.964Z,23.97
2018-03-22T05:29:45.198Z,25.30
2018-03-22T05:32:13.684Z,25.57
2018-03-22T05:34:41.916Z,27.00
2018-03-22T05:37:10.159Z,25.58
2018-03-22T05:39:38.449Z,26.40
2018-03-22T05:42:06.684Z,24.95
2018-03-22T05:44:35.688Z,22.73
2018-03-22T05:47:04.712Z,24.00
2018-03-22T05:49:34.304Z,23.10
2018-03-22T05:52:02.445Z,24.50
2018-03-22T05:54:30.713Z,24.50
2018-03-22T05:56:58.952Z,24.42
2018-03-22T05:59:27.212Z,23.90
2018-03-22T06:01:55.471Z,22.07
2018-03-22T06:04:23.706Z,23.40
2018-03-22T06:06:51.968Z,24.77
2018-03-22T06:09:21.004Z,24.83
2018-03-22T06:11:49.236Z,26.70
2018-03-22T06:14:17.500Z,24.03
2018-03-22T06:16:47.376Z,23.00
2018-03-22T06:19:16.252Z,24.67
2018-03-22T06:21:44.493Z,24.58
2018-03-22T06:24:12.756Z,24.33
2018-03-22T06:26:41.767Z,25.15
2018-03-22T06:29:09.995Z,25.50
2018-03-22T06:31:38.280Z,25.23
2018-03-22T06:34:06.516Z,24.35
2018-03-22T06:36:34.756Z,26.93
2018-03-22T06:39:03.029Z,25.63
2018-03-22T06:41:31.269Z,26.90
2018-03-22T06:43:59.508Z,24.53
2018-03-22T06:46:29.140Z,25.75
2018-03-22T06:48:57.256Z,27.23
2018-03-22T06:51:25.488Z,27.90
2018-03-22T06:53:53.756Z,23.48
2018-03-22T06:56:22.022Z,26.17
2018-03-22T06:58:51.024Z,28.25
2018-03-22T07:01:23.444Z,27.80
2018-03-22T07:03:51.680Z,27.77
2018-03-22T07:06:19.916Z,27.17
2018-03-22T07:08:48.209Z,26.52
2018-03-22T07:11:16.448Z,28.25
2018-03-22T07:13:44.693Z,29.30
2018-03-22T07:16:12.960Z,28.33
2018-03-22T07:18:41.206Z,28.02
2018-03-22T07:21:10.945Z,26.37
2018-03-22T07:23:40.356Z,29.20
2018-03-22T07:26:08.593Z,29.37
2018-03-22T07:28:37.596Z,26.98
2018-03-22T07:31:06.900Z,29.08
2018-03-22T07:33:35.133Z,28.60
2018-03-22T07:36:03.372Z,27.30
2018-03-22T07:38:31.641Z,27.13
2018-03-22T07:41:01.237Z,26.20
2018-03-22T07:43:36.497Z,24.47
2018-03-22T07:46:05.975Z,24.60
2018-03-22T07:48:34.480Z,24.98
2018-03-22T07:51:03.528Z,25.08
2018-03-22T07:53:32.546Z,26.77
2018-03-22T07:56:01.912Z,24.70
2018-03-22T07:58:30.187Z,26.70
2018-03-22T08:00:58.416Z,25.52
2018-03-22T08:03:26.643Z,27.83
2018-03-22T08:05:54.947Z,26.95
2018-03-22T08:08:24.293Z,27.80
2018-03-22T08:10:52.525Z,29.37
2018-03-22T08:13:20.832Z,31.42
2018-03-22T08:15:50.730Z,29.07
2018-03-22T08:18:18.836Z,29.40
2018-03-22T08:20:47.121Z,33.13
2018-03-22T08:23:15.357Z,30.43
2018-03-22T08:25:43.589Z,33.60
2018-03-22T08:28:12.993Z,31.90
2018-03-22T08:30:41.992Z,33.53
2018-03-22T08:33:10.228Z,31.50
2018-03-22T08:35:38.488Z,31.17
2018-03-22T08:38:07.485Z,31.27
2018-03-22T08:40:35.724Z,28.63
2018-03-22T08:43:03.984Z,30.40
2018-03-22T08:45:32.220Z,28.37
2018-03-22T08:48:00.844Z,30.03
2018-03-22T08:50:29.107Z,31.57
2018-03-22T08:52:57.349Z,30.13
2018-03-22T08:55:25.575Z,29.90
2018-03-22T08:57:54.964Z,32.00
2018-03-22T09:00:23.200Z,30.33
2018-03-22T09:02:52.569Z,29.60
2018-03-22T09:05:21.972Z,30.30
2018-03-22T09:07:51.339Z,28.77
2018-03-22T09:10:19.572Z,30.40
2018-03-22T09:12:47.852Z,28.13
2018-03-22T09:15:17.439Z,28.07
2018-03-22T09:17:46.312Z,30.73
2018-03-22T09:20:14.594Z,27.40
2018-03-22T09:22:43.588Z,27.47
2018-03-22T09:25:11.817Z,29.50
2018-03-22T09:27:40.101Z,26.97
2018-03-22T09:30:09.825Z,26.00
2018-03-22T09:32:38.052Z,27.60
2018-03-22T09:35:06.318Z,28.00
2018-03-22T09:37:34.553Z,29.60
2018-03-22T09:40:02.793Z,27.90
2018-03-22T09:42:31.060Z,27.97
2018-03-22T09:44:59.288Z,25.83
2018-03-22T09:47:27.521Z,25.70
2018-03-22T09:49:55.788Z,28.67
2018-03-22T09:52:24.024Z,27.27
2018-03-22T09:54:53.028Z,26.90
2018-03-22T09:57:22.043Z,25.03
2018-03-22T09:59:51.455Z,26.90
2018-03-22T10:02:19.680Z,27.17
2018-03-22T10:04:47.952Z,28.70
2018-03-22T10:07:16.176Z,24.80
2018-03-22T10:09:45.925Z,26.53
2018-03-22T10:12:14.946Z,25.77
2018-03-22T10:14:43.941Z,24.03
2018-03-22T10:17:12.971Z,24.17
2018-03-22T10:19:42.381Z,25.17
2018-03-22T10:22:10.612Z,23.90
2018-03-22T10:24:38.846Z,23.23
2018-03-22T10:27:07.117Z,25.37
2018-03-22T10:29:36.704Z,27.03
2018-03-22T10:32:04.812Z,26.83
2018-03-22T10:34:33.384Z,25.67
2018-03-22T10:37:02.967Z,26.57
2018-03-22T10:39:31.076Z,27.43
2018-03-22T10:42:00.113Z,22.20
2018-03-22T10:44:28.336Z,26.07
2018-03-22T10:46:56.568Z,25.97
2018-03-22T10:49:24.852Z,25.83
2018-03-22T10:51:53.480Z,24.30
2018-03-22T10:54:21.708Z,25.53
2018-03-22T10:56:49.997Z,25.60
2018-03-22T10:59:18.993Z,24.00
2018-03-22T11:01:53.018Z,23.40
2018-03-22T11:04:21.257Z,23.57
2018-03-22T11:06:50.253Z,23.03
2018-03-22T11:09:18.668Z,23.17
2018-03-22T11:11:48.424Z,20.60
2018-03-22T11:14:17.416Z,19.83
2018-03-22T11:16:45.680Z,21.93
2018-03-22T11:19:13.908Z,20.27
2018-03-22T11:21:43.498Z,19.93
2018-03-22T11:24:12.407Z,19.97
2018-03-22T11:26:42.300Z,19.40
2018-03-22T11:29:12.068Z,19.63
2018-03-22T11:31:41.692Z,20.17
2018-03-22T11:34:09.800Z,18.87
2018-03-22T11:36:38.849Z,18.90
2018-03-22T11:39:07.913Z,20.97
2018-03-22T11:41:36.148Z,20.33
2018-03-22T11:44:05.916Z,20.90
2018-03-22T11:46:34.160Z,23.27
2018-03-22T11:49:02.392Z,21.70
2018-03-22T11:51:30.663Z,21.43
2018-03-22T11:54:00.252Z,22.40
2018-03-22T11:56:28.367Z,20.37
2018-03-22T11:58:56.830Z,21.53
2018-03-22T12:01:25.060Z,21.23
2018-03-22T12:03:54.068Z,18.87
2018-03-22T12:06:23.200Z,19.80
2018-03-22T12:08:52.787Z,19.00
2018-03-22T12:11:21.297Z,20.47
2018-03-22T12:13:50.340Z,20.33
2018-03-22T12:16:19.340Z,20.03
2018-03-22T12:18:48.340Z,19.00
2018-03-22T12:21:16.614Z,22.83
2018-03-22T12:23:44.844Z,21.10
2018-03-22T12:26:13.850Z,19.43
2018-03-22T12:28:42.127Z,20.57
2018-03-22T12:31:10.357Z,21.07
2018-03-22T12:33:38.593Z,20.30
2018-03-22T12:36:06.888Z,21.70
2018-03-22T12:38:36.256Z,18.83
2018-03-22T12:41:04.489Z,21.23
2018-03-22T12:43:32.783Z,21.60
2018-03-22T12:46:00.988Z,19.90
2018-03-22T12:48:29.257Z,19.77
2018-03-22T12:50:57.524Z,16.93
2018-03-22T12:53:25.765Z,17.30
2018-03-22T12:55:54.028Z,15.93
2018-03-22T12:58:22.300Z,16.10
2018-03-22T13:00:50.536Z,14.23
2018-03-22T13:03:19.534Z,13.90
2018-03-22T13:05:48.581Z,15.07
2018-03-22T13:08:16.812Z,13.70
2018-03-22T13:10:45.819Z,15.33
2018-03-22T13:13:14.108Z,15.27
2018-03-22T13:15:42.353Z,14.80
2018-03-22T13:18:10.596Z,15.57
2018-03-22T13:20:38.871Z,14.93
2018-03-22T13:23:08.608Z,14.80
2018-03-22T13:25:37.617Z,15.47
2018-03-22T13:28:07.397Z,14.63
2018-03-22T13:30:35.632Z,16.80
2018-03-22T13:33:03.885Z,15.73
2018-03-22T13:35:32.920Z,15.60
2018-03-22T13:38:01.158Z,17.20
2018-03-22T13:40:29.400Z,15.50
2018-03-22T13:42:59.184Z,15.27
2018-03-22T13:45:27.424Z,17.40
2018-03-22T13:47:56.432Z,19.50
2018-03-22T13:50:26.370Z,17.70
2018-03-22T13:52:54.493Z,18.23
2018-03-22T13:55:23.876Z,18.30
2018-03-22T13:57:52.157Z,18.10
2018-03-22T14:00:20.421Z,18.43
2018-03-22T14:02:48.659Z,17.63
2018-03-22T14:05:16.935Z,17.63
2018-03-22T14:07:45.172Z,19.70
2018-03-22T14:10:13.413Z,17.97
2018-03-22T14:12:42.668Z,18.97
2018-03-22T14:15:10.897Z,15.70
2018-03-22T14:17:39.144Z,19.00
2018-03-22T14:20:08.346Z,19.17
2018-03-22T14:22:36.979Z,19.23
2018-03-22T14:25:05.984Z,17.40
2018-03-22T14:27:34.574Z,18.27
2018-03-22T14:30:03.561Z,18.10
2018-03-22T14:32:31.840Z,17.77
2018-03-22T14:35:00.081Z,16.93
2018-03-22T14:37:28.312Z,17.07
2018-03-22T14:39:56.577Z,15.47
2018-03-22T14:42:24.816Z,16.13
2018-03-22T14:44:53.084Z,14.87
2018-03-22T14:47:22.472Z,15.37
2018-03-22T14:49:51.544Z,14.27
2018-03-22T14:52:20.653Z,15.17
2018-03-22T14:54:49.821Z,15.17
2018-03-22T14:57:18.851Z,13.37
2018-03-22T14:59:47.189Z,15.80
2018-03-22T15:02:15.427Z,13.77
2018-03-22T15:04:43.673Z,14.07
2018-03-22T15:07:12.029Z,15.43
2018-03-22T15:09:41.664Z,15.67
2018-03-22T15:12:09.768Z,14.03
2018-03-22T15:14:38.057Z,15.67
2018-03-22T15:17:06.305Z,15.10
2018-03-22T15:19:35.692Z,15.40
2018-03-22T15:22:05.644Z,16.20
2018-03-22T15:24:33.933Z,14.63
2018-03-22T15:27:02.197Z,14.63
2018-03-22T15:29:30.469Z,13.53
2018-03-22T15:31:59.469Z,13.90
2018-03-22T15:34:29.240Z,15.23
2018-03-22T15:36:57.508Z,16.33
2018-03-22T15:39:25.754Z,14.23
2018-03-22T15:41:54.763Z,15.43
2018-03-22T15:44:23.806Z,14.27
2018-03-22T15:46:52.805Z,15.07
2018-03-22T15:49:21.049Z,15.00
2018-03-22T15:51:49.332Z,14.50
2018-03-22T15:54:17.568Z,14.40
2018-03-22T15:56:45.812Z,13.27
2018-03-22T15:59:14.107Z,12.73
2018-03-22T16:01:42.346Z,15.03
2018-03-22T16:04:11.848Z,13.27
2018-03-22T16:06:40.123Z,15.13
2018-03-22T16:09:09.134Z,13.00
2018-03-22T16:11:37.764Z,14.53
2018-03-22T16:14:06.060Z,15.10
2018-03-22T16:16:34.275Z,12.03
2018-03-22T16:19:02.513Z,8.47
2018-03-22T16:21:30.792Z,6.83
2018-03-22T16:23:59.026Z,5.67
2018-03-22T16:26:27.258Z,4.83
2018-03-22T16:28:56.672Z,4.10
2018-03-22T16:31:24.900Z,4.03
2018-03-22T16:33:53.524Z,4.70
2018-03-22T16:36:21.812Z,5.60
2018-03-22T16:38:50.810Z,4.77
2018-03-22T16:41:19.437Z,6.70
2018-03-22T16:43:48.483Z,6.50
2018-03-22T16:46:17.476Z,7.60
2018-03-22T16:48:46.481Z,8.90
2018-03-22T16:51:14.791Z,7.87
2018-03-22T16:53:43.793Z,7.57
2018-03-22T16:56:12.032Z,7.40
2018-03-22T16:58:40.899Z,6.43
2018-03-22T17:01:09.140Z,9.83
2018-03-22T17:03:38.512Z,10.23
2018-03-22T17:06:08.147Z,8.97
2018-03-22T17:08:36.644Z,9.83
2018-03-22T17:11:04.880Z,9.40
2018-03-22T17:13:33.184Z,8.80
2018-03-22T17:16:01.382Z,8.90
2018-03-22T17:18:29.616Z,6.80
2018-03-22T17:20:57.889Z,7.57
2018-03-22T17:23:26.132Z,6.20
2018-03-22T17:25:54.356Z,6.20
2018-03-22T17:28:22.633Z,5.87
2018-03-22T17:30:51.634Z,5.30
2018-03-22T17:33:19.885Z,5.00
2018-03-22T17:35:48.157Z,5.57
2018-03-22T17:38:16.391Z,7.30
2018-03-22T17:40:44.621Z,5.40
2018-03-22T17:43:12.892Z,6.40
2018-03-22T17:45:41.128Z,6.33
2018-03-22T17:48:10.881Z,4.50
2018-03-22T17:50:39.149Z,6.77
2018-03-22T17:53:07.381Z,6.57
2018-03-22T17:55:35.605Z,6.67
2018-03-22T17:58:04.840Z,7.60
2018-03-22T18:00:33.849Z,5.50
2018-03-22T18:05:59.925Z,6.20
2018-03-22T18:08:28.578Z,6.37
2018-03-22T18:10:57.555Z,7.37
2018-03-22T18:13:25.853Z,6.47
2018-03-22T18:15:54.089Z,7.57
2018-03-22T18:18:23.469Z,7.47
2018-03-22T18:20:51.752Z,6.30
2018-03-22T18:23:19.991Z,6.50
2018-03-22T18:25:50.268Z,7.47
2018-03-22T18:28:18.413Z,9.10
2018-03-22T18:30:46.659Z,9.30
2018-03-22T18:33:14.898Z,7.60
2018-03-22T18:35:43.189Z,7.30
2018-03-22T18:38:12.565Z,9.13
2018-03-22T18:40:40.835Z,10.83
2018-03-22T18:43:09.884Z,11.60
2018-03-22T18:45:39.481Z,12.30
2018-03-22T18:48:09.109Z,13.67
2018-03-22T18:50:38.445Z,15.90
2018-03-22T18:53:07.076Z,18.43
2018-03-22T18:55:36.126Z,17.13
2018-03-22T18:58:05.510Z,16.67
2018-03-22T19:00:33.736Z,17.27
2018-03-22T19:06:02.472Z,18.03
2018-03-22T19:08:31.104Z,17.00
2018-03-22T19:11:00.127Z,17.63
2018-03-22T19:13:28.552Z,17.87
2018-03-22T19:15:56.784Z,17.93
2018-03-22T19:18:25.434Z,21.47
2018-03-22T19:20:53.706Z,18.70
2018-03-22T19:23:22.723Z,19.93
2018-03-22T19:25:52.318Z,16.80
2018-03-22T19:28:21.604Z,18.43
2018-03-22T19:30:49.854Z,17.40
2018-03-22T19:33:18.090Z,18.10
2018-03-22T19:35:47.150Z,18.10
2018-03-22T19:38:15.794Z,18.27
2018-03-22T19:40:45.174Z,18.10
2018-03-22T19:43:14.224Z,16.50
2018-03-22T19:45:42.461Z,17.00
2018-03-22T19:48:11.833Z,16.23
2018-03-22T19:50:40.123Z,17.10
2018-03-22T19:53:09.717Z,19.37
2018-03-22T19:55:37.842Z,15.63
2018-03-22T19:58:06.116Z,16.87
2018-03-22T20:00:35.139Z,15.37
2018-03-22T20:03:05.010Z,15.37
2018-03-22T20:05:33.324Z,15.30
2018-03-22T20:08:01.529Z,16.20
2018-03-22T20:10:30.533Z,14.50
2018-03-22T20:12:58.852Z,15.27
2018-03-22T20:15:27.126Z,13.50
2018-03-22T20:17:55.343Z,14.00
2018-03-22T20:20:23.608Z,14.20
2018-03-22T20:22:53.364Z,12.40
2018-03-22T20:25:21.592Z,12.67
2018-03-22T20:27:49.879Z,13.00
2018-03-22T20:30:18.112Z,12.10
2018-03-22T20:32:46.389Z,12.27
2018-03-22T20:35:15.771Z,11.17
2018-03-22T20:37:44.786Z,12.07
2018-03-22T20:40:13.032Z,13.47
2018-03-22T20:42:41.333Z,12.50
2018-03-22T20:45:10.332Z,12.00
2018-03-22T20:47:39.346Z,13.20
2018-03-22T20:50:08.398Z,11.07
2018-03-22T20:52:36.624Z,11.40
2018-03-22T20:55:04.874Z,11.33
2018-03-22T20:57:33.916Z,13.10
2018-03-22T21:00:02.149Z,12.50
2018-03-22T21:02:31.144Z,12.47
2018-03-22T21:04:59.427Z,11.77
2018-03-22T21:07:28.052Z,11.70
2018-03-22T21:09:56.312Z,12.27
2018-03-22T21:12:24.589Z,11.90
2018-03-22T21:14:54.378Z,11.40
2018-03-22T21:17:23.952Z,11.60
2018-03-22T21:19:52.093Z,12.57
2018-03-22T21:22:21.097Z,12.83
2018-03-22T21:24:49.369Z,11.43
2018-03-22T21:27:18.385Z,13.00
2018-03-22T21:29:46.612Z,12.60
2018-03-22T21:32:14.886Z,12.07
2018-03-22T21:34:43.116Z,11.80
2018-03-22T21:37:11.761Z,11.37
2018-03-22T21:39:40.991Z,12.40
2018-03-22T21:42:09.234Z,11.10
2018-03-22T21:44:37.465Z,11.83
2018-03-22T21:47:21.708Z,12.17
2018-03-22T21:49:49.945Z,12.57
2018-03-22T21:52:31.032Z,10.00
2018-03-22T21:55:00.620Z,10.60
2018-03-22T21:57:29.508Z,11.20
2018-03-22T22:00:01.358Z,11.73
2018-03-22T22:02:30.962Z,10.60
2018-03-22T22:04:59.864Z,11.17
2018-03-22T22:07:28.872Z,10.00
2018-03-22T22:09:58.491Z,11.57
2018-03-22T22:12:26.597Z,13.40
2018-03-22T22:14:54.885Z,10.50
2018-03-22T22:17:24.271Z,12.00
2018-03-22T22:19:52.514Z,11.60
2018-03-22T22:22:21.544Z,11.30
2018-03-22T22:24:49.795Z,11.10
2018-03-22T22:27:18.806Z,12.70
2018-03-22T22:29:47.268Z,12.37
2018-03-22T22:32:15.518Z,11.73
2018-03-22T22:34:43.759Z,12.80
2018-03-22T22:37:13.239Z,12.60
2018-03-22T22:39:42.209Z,13.77
2018-03-22T22:42:11.580Z,14.10
2018-03-22T22:44:39.894Z,12.93
2018-03-22T22:47:08.118Z,13.17
2018-03-22T22:49:36.357Z,14.07
2018-03-22T22:52:04.870Z,13.87
2018-03-22T22:54:34.608Z,11.50
2018-03-22T22:57:02.854Z,14.17
2018-03-22T22:59:31.141Z,13.13
2018-03-22T23:01:59.378Z,12.73
2018-03-22T23:04:27.626Z,15.37
2018-03-22T23:06:55.889Z,15.80
2018-03-22T23:09:24.914Z,14.03
2018-03-22T23:11:53.933Z,14.00
2018-03-22T23:14:22.996Z,11.40
2018-03-22T23:16:51.235Z,13.77
2018-03-22T23:19:20.241Z,13.67
2018-03-22T23:21:49.889Z,11.90
2018-03-22T23:24:18.011Z,14.23
2018-03-22T23:26:46.250Z,14.90
2018-03-22T23:29:14.516Z,13.97
2018-03-22T23:31:42.753Z,14.77
2018-03-22T23:34:11.002Z,14.30
2018-03-22T23:36:40.038Z,15.10
2018-03-22T23:39:08.287Z,13.30
2018-03-22T23:41:36.531Z,14.50
2018-03-22T23:44:06.338Z,16.00
2018-03-22T23:46:34.586Z,15.87
2018-03-22T23:49:02.825Z,16.10
2018-03-22T23:51:31.492Z,18.10
2018-03-22T23:53:59.717Z,18.67
2018-03-22T23:56:28.739Z,19.63
2018-03-22T23:58:57.003Z,18.17
